createdAt,value
2023-05-25T00:01:02.516Z,100717.81
2023-05-25T00:06:05.778Z,100714.35
2023-05-25T00:11:07.429Z,100719.67
2023-05-25T00:16:08.965Z,100721.23
2023-05-25T00:21:10.863Z,100722.11
2023-05-25T00:26:12.473Z,100733.17
2023-05-25T00:31:14.135Z,100734.22
2023-05-25T00:36:15.867Z,100732.48
2023-05-25T00:41:18.653Z,100734.52
2023-05-25T00:46:20.381Z,100733.86
2023-05-25T00:51:22.591Z,100732.55
2023-05-25T00:56:29.196Z,100737.35
2023-05-25T01:01:40.080Z,100740.98
2023-05-25T01:06:47.305Z,100746.85
2023-05-25T01:11:51.428Z,100743.48
2023-05-25T01:16:55.252Z,100747.76
2023-05-25T01:22:32.713Z,100748.31
2023-05-25T01:27:44.006Z,100749.80
2023-05-25T01:32:46.478Z,100749.41
2023-05-25T01:37:49.937Z,100747.04
2023-05-25T01:42:51.489Z,100748.19
2023-05-25T01:48:22.331Z,100748.77
2023-05-25T01:53:30.375Z,100754.91
2023-05-25T01:58:38.913Z,100753.05
2023-05-25T02:03:42.241Z,100756.50
2023-05-25T02:08:46.659Z,100749.90
2023-05-25T02:13:48.270Z,100747.48
2023-05-25T02:18:51.023Z,100745.04
2023-05-25T02:23:54.117Z,100752.48
2023-05-25T02:28:55.599Z,100750.86
2023-05-25T02:33:57.989Z,100757.02
2023-05-25T02:38:59.593Z,100757.98
2023-05-25T02:44:01.127Z,100754.80
2023-05-25T02:49:02.800Z,100753.20
2023-05-25T02:54:04.468Z,100755.27
2023-05-25T02:59:06.028Z,100756.16
2023-05-25T03:04:07.874Z,100757.27
2023-05-25T03:09:10.014Z,100756.58
2023-05-25T03:14:11.646Z,100754.17
2023-05-25T03:19:13.532Z,100759.52
2023-05-25T03:24:15.108Z,100762.63
2023-05-25T03:29:16.712Z,100768.25
2023-05-25T03:34:18.326Z,100771.29
2023-05-25T03:39:22.165Z,100774.33
2023-05-25T03:44:24.429Z,100778.73
2023-05-25T03:49:28.063Z,100778.27
2023-05-25T03:54:29.657Z,100784.84
2023-05-25T03:59:31.470Z,100796.66
2023-05-25T04:04:33.096Z,100801.39
2023-05-25T04:09:34.734Z,100811.92
2023-05-25T04:14:36.356Z,100819.66
2023-05-25T04:19:37.937Z,100825.15
2023-05-25T04:24:39.459Z,100823.43
2023-05-25T04:29:41.814Z,100821.75
2023-05-25T04:34:46.825Z,100819.85
2023-05-25T04:39:48.524Z,100825.83
2023-05-25T04:44:55.870Z,100822.44
2023-05-25T04:49:57.621Z,100819.35
2023-05-25T04:54:59.312Z,100820.24
2023-05-25T05:00:01.065Z,100822.15
2023-05-25T05:05:02.717Z,100823.70
2023-05-25T05:10:05.306Z,100826.02
2023-05-25T05:15:07.844Z,100831.98
2023-05-25T05:20:09.729Z,100836.98
2023-05-25T05:25:11.600Z,100839.34
2023-05-25T05:30:13.437Z,100839.73
2023-05-25T05:35:17.381Z,100840.54
2023-05-25T05:40:19.190Z,100844.54
2023-05-25T05:45:21.533Z,100856.30
2023-05-25T05:50:24.660Z,100860.94
2023-05-25T05:55:26.524Z,100854.76
2023-05-25T06:00:28.964Z,100859.27
2023-05-25T06:05:30.506Z,100860.91
2023-05-25T06:10:32.095Z,100866.41
2023-05-25T06:15:33.990Z,100875.67
2023-05-25T06:20:35.984Z,100877.54
2023-05-25T06:25:37.547Z,100878.02
2023-05-25T06:30:39.569Z,100881.53
2023-05-25T06:35:43.557Z,100885.79
2023-05-25T06:40:45.426Z,100895.13
2023-05-25T06:45:48.389Z,100898.27
2023-05-25T06:50:50.124Z,100899.23
2023-05-25T06:55:51.886Z,100901.27
2023-05-25T07:00:53.852Z,100900.70
2023-05-25T07:05:55.510Z,100902.40
2023-05-25T07:10:57.091Z,100903.77
2023-05-25T07:15:58.824Z,100905.70
2023-05-25T07:21:00.460Z,100905.23
2023-05-25T07:26:05.021Z,100903.67
2023-05-25T07:31:08.875Z,100904.05
2023-05-25T07:36:10.641Z,100904.77
2023-05-25T07:41:13.477Z,100900.67
2023-05-25T07:46:17.265Z,100900.00
2023-05-25T07:51:18.928Z,100898.85
2023-05-25T07:56:20.675Z,100902.00
2023-05-25T08:01:24.922Z,100899.61
2023-05-25T08:06:27.938Z,100901.19
2023-05-25T08:11:29.586Z,100898.09
2023-05-25T08:16:31.186Z,100899.30
2023-05-25T08:21:35.202Z,100898.38
2023-05-25T08:26:53.223Z,100895.77
2023-05-25T08:31:56.002Z,100894.59
2023-05-25T08:36:58.019Z,100890.98
2023-05-25T08:42:00.178Z,100892.20
2023-05-25T08:47:07.313Z,100897.44
2023-05-25T08:52:15.032Z,100891.25
2023-05-25T08:57:26.205Z,100894.82
2023-05-25T09:02:56.749Z,100895.55
2023-05-25T09:07:59.110Z,100901.80
2023-05-25T09:13:12.828Z,100903.02
2023-05-25T09:18:21.889Z,100899.98
2023-05-25T09:23:23.898Z,100901.95
2023-05-25T09:28:27.589Z,100900.84
2023-05-25T09:33:30.161Z,100904.33
2023-05-25T09:38:33.984Z,100899.02
2023-05-25T09:43:44.645Z,100900.71
2023-05-25T09:48:53.499Z,100898.48
2023-05-25T09:53:55.160Z,100901.80
2023-05-25T09:58:57.181Z,100900.40
2023-05-25T10:04:04.606Z,100903.03
2023-05-25T10:09:11.820Z,100906.64
2023-05-25T10:14:20.088Z,100906.48
2023-05-25T10:19:45.706Z,100909.10
2023-05-25T10:24:56.364Z,100908.67
2023-05-25T10:30:02.023Z,100910.33
2023-05-25T10:35:07.335Z,100904.16
2023-05-25T10:40:10.146Z,100905.04
2023-05-25T10:45:13.182Z,100903.90
2023-05-25T10:50:29.641Z,100895.42
2023-05-25T10:55:48.532Z,100894.27
2023-05-25T11:01:06.705Z,100888.20
2023-05-25T11:06:10.614Z,100886.75
2023-05-25T11:11:12.196Z,100883.64
2023-05-25T11:16:34.576Z,100886.43
2023-05-25T11:21:36.222Z,100875.23
2023-05-25T11:26:37.986Z,100865.49
2023-05-25T11:31:43.390Z,100859.38
2023-05-25T11:36:45.732Z,100865.54
2023-05-25T11:41:56.098Z,100864.06
2023-05-25T11:47:02.190Z,100863.54
2023-05-25T11:52:09.136Z,100859.52
2023-05-25T11:57:18.566Z,100860.42
2023-05-25T12:02:21.436Z,100858.02
2023-05-25T12:07:23.975Z,100860.06
2023-05-25T12:12:25.704Z,100856.09
2023-05-25T12:17:27.313Z,100852.41
2023-05-25T12:22:29.078Z,100848.60
2023-05-25T12:27:31.042Z,100843.80
2023-05-25T12:32:32.648Z,100843.27
2023-05-25T12:37:34.678Z,100845.13
2023-05-25T12:42:36.509Z,100843.73
2023-05-25T12:47:38.183Z,100838.60
2023-05-25T12:52:44.414Z,100833.73
2023-05-25T12:57:47.277Z,100821.83
2023-05-25T13:02:50.536Z,100819.89
2023-05-25T13:07:54.317Z,100815.59
2023-05-25T13:12:58.422Z,100812.05
2023-05-25T13:18:00.263Z,100800.00
2023-05-25T13:23:03.390Z,100793.67
2023-05-25T13:28:06.389Z,100792.05
2023-05-25T13:33:08.641Z,100788.70
2023-05-25T13:38:10.785Z,100782.85
2023-05-25T13:43:12.280Z,100774.55
2023-05-25T13:48:13.979Z,100773.02
2023-05-25T13:53:15.842Z,100766.77
2023-05-25T13:58:17.395Z,100759.36
2023-05-25T14:03:19.025Z,100757.98
2023-05-25T14:08:20.765Z,100755.66
2023-05-25T14:13:22.475Z,100756.86
2023-05-25T14:18:24.387Z,100753.85
2023-05-25T14:23:25.898Z,100760.70
2023-05-25T14:28:27.934Z,100756.48
2023-05-25T14:33:29.875Z,100759.01
2023-05-25T14:38:32.646Z,100756.45
2023-05-25T14:43:34.981Z,100750.42
2023-05-25T14:48:36.686Z,100747.83
2023-05-25T14:53:38.397Z,100748.05
2023-05-25T14:58:39.951Z,100744.84
2023-05-25T15:03:41.554Z,100738.33
2023-05-25T15:08:43.241Z,100734.70
2023-05-25T15:13:45.518Z,100730.86
2023-05-25T15:18:47.048Z,100735.23
2023-05-25T15:23:48.638Z,100731.60
2023-05-25T15:28:50.244Z,100740.73
2023-05-25T15:33:58.293Z,100737.86
2023-05-25T15:39:00.755Z,100735.21
2023-05-25T15:44:02.682Z,100732.27
2023-05-25T15:49:10.814Z,100728.64
2023-05-25T15:54:14.558Z,100730.77
2023-05-25T15:59:16.567Z,100726.19
2023-05-25T16:04:19.250Z,100727.00
2023-05-25T16:09:20.993Z,100728.38
2023-05-25T16:14:22.558Z,100721.94
2023-05-25T16:19:29.836Z,100721.59
2023-05-25T16:24:31.420Z,100720.61
2023-05-25T16:29:33.296Z,100717.80
2023-05-25T16:34:34.962Z,100721.88
2023-05-25T16:39:36.531Z,100721.46
2023-05-25T16:44:38.105Z,100723.60
2023-05-25T16:49:39.666Z,100724.78
2023-05-25T16:54:41.293Z,100720.83
2023-05-25T16:59:42.878Z,100712.02
2023-05-25T17:04:44.448Z,100719.36
2023-05-25T17:09:46.004Z,100723.52
2023-05-25T17:14:47.593Z,100725.29
2023-05-25T17:19:49.157Z,100722.55
2023-05-25T17:24:50.937Z,100723.06
2023-05-25T17:29:53.026Z,100718.55
2023-05-25T17:34:54.449Z,100726.59
2023-05-25T17:39:55.986Z,100728.77
2023-05-25T17:44:57.554Z,100736.95
2023-05-25T17:49:59.086Z,100735.30
2023-05-25T17:55:00.813Z,100735.77
2023-05-25T18:00:02.631Z,100740.94
2023-05-25T18:05:04.389Z,100739.83
2023-05-25T18:10:06.694Z,100742.54
2023-05-25T18:15:08.716Z,100742.77
2023-05-25T18:20:11.514Z,100745.86
2023-05-25T18:25:13.198Z,100750.87
2023-05-25T18:30:15.420Z,100752.97
2023-05-25T18:35:17.326Z,100761.09
2023-05-25T18:40:18.900Z,100768.77
2023-05-25T18:45:20.464Z,100768.52
2023-05-25T18:50:22.117Z,100770.09
2023-05-25T18:55:23.712Z,100780.49
2023-05-25T19:00:31.561Z,100780.63
2023-05-25T19:05:33.095Z,100782.33
2023-05-25T19:10:34.644Z,100785.52
2023-05-25T19:15:36.302Z,100788.55
2023-05-25T19:20:37.921Z,100788.74
2023-05-25T19:25:39.608Z,100791.27
2023-05-25T19:30:42.005Z,100788.21
2023-05-25T19:35:43.765Z,100791.48
2023-05-25T19:40:45.857Z,100784.30
2023-05-25T19:45:47.795Z,100787.55
2023-05-25T19:50:49.563Z,100787.94
2023-05-25T19:55:51.667Z,100788.06
2023-05-25T20:00:53.828Z,100783.98
2023-05-25T20:05:56.358Z,100782.31
2023-05-25T20:10:57.961Z,100786.83
2023-05-25T20:15:59.592Z,100787.20
2023-05-25T20:21:01.243Z,100789.02
2023-05-25T20:26:02.805Z,100789.54
2023-05-25T20:31:05.817Z,100790.00
2023-05-25T20:36:07.464Z,100793.52
2023-05-25T20:41:09.016Z,100794.84
2023-05-25T20:46:11.295Z,100798.56
2023-05-25T20:51:14.142Z,100804.72
2023-05-25T20:56:15.926Z,100798.86
2023-05-25T21:01:17.601Z,100798.10
2023-05-25T21:06:19.566Z,100799.79
2023-05-25T21:11:22.076Z,100799.91
2023-05-25T21:16:23.663Z,100801.89
2023-05-25T21:21:25.732Z,100803.83
2023-05-25T21:26:28.324Z,100807.41
2023-05-25T21:31:29.919Z,100807.92
2023-05-25T21:36:32.478Z,100811.59
2023-05-25T21:41:34.023Z,100815.80
2023-05-25T21:46:36.557Z,100817.17
2023-05-25T21:51:38.151Z,100814.71
2023-05-25T21:56:39.676Z,100814.52
2023-05-25T22:01:41.529Z,100809.53
2023-05-25T22:06:43.197Z,100811.86
2023-05-25T22:11:44.718Z,100814.62
2023-05-25T22:16:46.390Z,100821.10
2023-05-25T22:21:48.055Z,100831.18
2023-05-25T22:26:49.616Z,100833.23
2023-05-25T22:31:51.176Z,100840.61
2023-05-25T22:36:52.763Z,100849.17
2023-05-25T22:41:54.333Z,100851.02
2023-05-25T22:46:55.992Z,100851.83
2023-05-25T22:51:57.680Z,100853.88
2023-05-25T22:56:59.370Z,100853.34
2023-05-25T23:02:00.947Z,100852.92
2023-05-25T23:07:02.698Z,100850.70
2023-05-25T23:12:04.555Z,100846.79
2023-05-25T23:17:06.093Z,100846.98
2023-05-25T23:22:07.634Z,100848.31
2023-05-25T23:27:09.163Z,100851.33
2023-05-25T23:32:10.835Z,100848.86
2023-05-25T23:37:12.368Z,100850.73
2023-05-25T23:42:15.518Z,100852.87
2023-05-25T23:47:17.116Z,100857.57
2023-05-25T23:52:18.717Z,100860.75
2023-05-25T23:57:20.340Z,100856.93
